Zoutleeuw, Belgium
Current Conditions -  °F | °C
As of 1:25 AM on Saturday 29 Nov 2014 (Local Time) from EBDT Reporting Station
Clear Clear  
Wind Chill: 36°   Ceiling: Unl
Heat Index: 39°   Visibility: 4mi
Dew Point: 36°   Wind: 5mph
Humidity: 87%   Direction: 80°E
Pressure: 29.85"   Gusts: NA
Location:  50.83°N, 5.1°E
Report Text: EBDT 290025Z AUTO 08004KT 7000 NCD 04/02 Q1011 WHT
Loading
Personal Weather Stations






























Interactive Weather Map New forecast layout! Learn more

10-Day Weather Forecast

Advertisements
Track Severe Weather on mobile